createdAt,value
2019-02-25T00:00:35.536Z,46.02
2019-02-25T00:01:16.097Z,46.02
2019-02-25T00:01:56.701Z,45.64
2019-02-25T00:02:37.245Z,45.83
2019-02-25T00:03:17.919Z,45.92
2019-02-25T00:03:58.495Z,45.92
2019-02-25T00:04:39.066Z,46.3
2019-02-25T00:05:19.694Z,46.21
2019-02-25T00:06:00.261Z,46.21
2019-02-25T00:06:40.874Z,46.3
2019-02-25T00:07:21.428Z,46.59
2019-02-25T00:08:02.023Z,46.59
2019-02-25T00:08:42.583Z,46.59
2019-02-25T00:09:23.137Z,47.16
2019-02-25T00:10:03.741Z,46.59
2019-02-25T00:10:44.343Z,46.69
2019-02-25T00:11:24.907Z,46.69
2019-02-25T00:12:05.469Z,46.59
2019-02-25T00:12:46.025Z,46.69
2019-02-25T00:13:26.590Z,46.69
2019-02-25T00:14:07.188Z,46.97
2019-02-25T00:14:47.776Z,47.34
2019-02-25T00:15:28.341Z,47.16
2019-02-25T00:16:09.501Z,46.88
2019-02-25T00:16:49.441Z,47.06
2019-02-25T00:17:30.029Z,47.06
2019-02-25T00:18:10.653Z,47.06
2019-02-25T00:18:51.231Z,47.06
2019-02-25T00:19:31.784Z,47.06
2019-02-25T00:20:12.368Z,46.97
2019-02-25T00:20:52.943Z,46.78
2019-02-25T00:21:33.510Z,46.78
2019-02-25T00:22:14.095Z,47.16
2019-02-25T00:22:54.656Z,47.25
2019-02-25T00:23:35.278Z,47.34
2019-02-25T00:24:15.910Z,46.97
2019-02-25T00:24:56.488Z,47.06
2019-02-25T00:25:37.058Z,46.69
2019-02-25T00:26:17.623Z,46.97
2019-02-25T00:26:58.217Z,47.34
2019-02-25T00:27:38.805Z,47.06
2019-02-25T00:28:19.372Z,47.25
2019-02-25T00:28:59.930Z,47.06
2019-02-25T00:29:40.500Z,46.97
2019-02-25T00:30:21.059Z,46.97
2019-02-25T00:31:01.624Z,47.44
2019-02-25T00:31:42.174Z,47.53
2019-02-25T00:32:22.738Z,47.63
2019-02-25T00:33:03.308Z,47.44
2019-02-25T00:33:43.884Z,47.44
2019-02-25T00:34:24.480Z,47.44
2019-02-25T00:35:05.041Z,47.53
2019-02-25T00:35:45.580Z,47.44
2019-02-25T00:36:26.172Z,47.25
2019-02-25T00:37:06.743Z,47.63
2019-02-25T00:37:47.296Z,47.63
2019-02-25T00:38:27.852Z,47.63
2019-02-25T00:39:08.439Z,47.73
2019-02-25T00:39:49.057Z,47.73
2019-02-25T00:40:29.635Z,47.44
2019-02-25T00:41:10.231Z,47.63
2019-02-25T00:41:50.787Z,47.82
2019-02-25T00:42:31.359Z,47.92
2019-02-25T00:43:11.923Z,48.2
2019-02-25T00:43:52.501Z,48.39
2019-02-25T00:44:33.067Z,48.49
2019-02-25T00:45:13.624Z,48.49
2019-02-25T00:45:54.203Z,48.39
2019-02-25T00:46:34.787Z,48.39
2019-02-25T00:47:15.355Z,48.39
2019-02-25T00:47:55.902Z,48.01
2019-02-25T00:48:36.474Z,48.2
2019-02-25T00:49:17.055Z,48.3
2019-02-25T00:49:57.612Z,48.01
2019-02-25T00:50:38.233Z,48.01
2019-02-25T00:51:18.742Z,48.2
2019-02-25T00:51:59.329Z,48.11
2019-02-25T00:52:39.882Z,48.2
2019-02-25T00:53:20.465Z,48.11
2019-02-25T00:54:01.057Z,48.39
2019-02-25T00:54:41.621Z,48.39
2019-02-25T00:55:22.191Z,48.39
2019-02-25T00:56:02.763Z,48.49
2019-02-25T00:56:43.376Z,48.58
2019-02-25T00:57:23.922Z,48.49
2019-02-25T00:58:04.506Z,48.2
2019-02-25T00:58:45.110Z,48.39
2019-02-25T00:59:25.670Z,48.39
2019-02-25T01:00:06.281Z,48.2
2019-02-25T01:00:46.855Z,48.11
2019-02-25T01:01:27.426Z,48.2
2019-02-25T01:02:07.988Z,48.49
2019-02-25T01:02:48.559Z,48.3
2019-02-25T01:03:29.109Z,48.49
2019-02-25T01:04:09.673Z,48.77
2019-02-25T01:04:50.293Z,48.77
2019-02-25T01:05:30.911Z,48.68
2019-02-25T01:06:11.474Z,48.68
2019-02-25T01:06:52.039Z,48.96
2019-02-25T01:07:32.614Z,48.68
2019-02-25T01:08:13.177Z,48.49
2019-02-25T01:08:53.732Z,48.58
2019-02-25T01:09:34.331Z,48.68
2019-02-25T01:10:14.891Z,48.58
2019-02-25T01:10:55.445Z,48.49
2019-02-25T01:11:36.008Z,48.68
2019-02-25T01:12:16.601Z,48.68
2019-02-25T01:12:57.156Z,48.96
2019-02-25T01:13:37.706Z,48.86
2019-02-25T01:14:18.273Z,49.05
2019-02-25T01:14:58.839Z,48.86
2019-02-25T01:15:39.426Z,48.86
2019-02-25T01:16:20.009Z,48.68
2019-02-25T01:17:00.562Z,48.86
2019-02-25T01:17:41.126Z,49.05
2019-02-25T01:18:21.680Z,48.96
2019-02-25T01:19:02.238Z,49.15
2019-02-25T01:19:42.803Z,49.24
2019-02-25T01:20:23.358Z,49.34
2019-02-25T01:21:03.918Z,49.15
2019-02-25T01:21:44.475Z,49.72
2019-02-25T01:22:25.059Z,49.82
2019-02-25T01:23:05.641Z,49.91
2019-02-25T01:23:46.214Z,49.82
2019-02-25T01:24:26.832Z,49.98
2019-02-25T01:25:07.410Z,50.2
2019-02-25T01:25:47.974Z,50.57
2019-02-25T01:26:28.539Z,50.55
2019-02-25T01:27:11.697Z,50.01
2019-02-25T01:27:52.236Z,50.17
2019-02-25T01:28:32.793Z,50.48
2019-02-25T01:29:13.358Z,50.29
2019-02-25T01:29:53.934Z,50.17
2019-02-25T01:30:34.522Z,50.36
2019-02-25T01:31:15.098Z,50.17
2019-02-25T01:31:55.680Z,50.2
2019-02-25T01:32:36.237Z,50.45
2019-02-25T01:33:16.809Z,50.64
2019-02-25T01:33:57.355Z,50.74
2019-02-25T01:34:37.946Z,50.17
2019-02-25T01:35:18.533Z,50.36
2019-02-25T01:35:59.094Z,50.38
2019-02-25T01:36:39.643Z,50.38
2019-02-25T01:37:20.213Z,50.36
2019-02-25T01:38:00.794Z,50.55
2019-02-25T01:38:41.391Z,50.55
2019-02-25T01:39:22.051Z,50.93
2019-02-25T01:40:02.619Z,50.93
2019-02-25T01:40:43.206Z,50.83
2019-02-25T01:41:23.799Z,50.74
2019-02-25T01:42:04.385Z,50.83
2019-02-25T01:42:44.942Z,50.83
2019-02-25T01:43:25.534Z,50.83
2019-02-25T01:44:06.075Z,50.93
2019-02-25T01:44:46.655Z,50.74
2019-02-25T01:45:27.232Z,50.74
2019-02-25T01:46:07.798Z,50.74
2019-02-25T01:46:48.364Z,51.03
2019-02-25T01:47:28.920Z,50.93
2019-02-25T01:48:09.476Z,50.74
2019-02-25T01:48:50.044Z,50.83
2019-02-25T01:49:30.630Z,50.64
2019-02-25T01:50:11.204Z,50.93
2019-02-25T01:50:51.760Z,51.12
2019-02-25T01:51:32.335Z,51.4
2019-02-25T01:52:12.957Z,51.21
2019-02-25T01:52:53.537Z,51.68
2019-02-25T01:53:34.086Z,51.5
2019-02-25T01:54:14.641Z,51.68
2019-02-25T01:54:55.192Z,51.78
2019-02-25T01:55:35.742Z,51.97
2019-02-25T01:56:16.307Z,51.78
2019-02-25T01:56:56.865Z,52.16
2019-02-25T01:57:37.429Z,51.87
2019-02-25T01:58:18.112Z,51.97
2019-02-25T01:58:58.647Z,51.97
2019-02-25T01:59:39.198Z,51.87
2019-02-25T02:00:20.144Z,52.35
2019-02-25T02:01:00.717Z,52.16
2019-02-25T02:01:41.276Z,51.87
2019-02-25T02:02:21.850Z,52.26
2019-02-25T02:03:02.414Z,52.35
2019-02-25T02:03:42.969Z,52.35
2019-02-25T02:04:23.551Z,52.16
2019-02-25T02:05:04.196Z,52.45
2019-02-25T02:05:44.777Z,52.54
2019-02-25T02:06:25.344Z,52.45
2019-02-25T02:07:05.950Z,52.26
2019-02-25T02:07:46.488Z,52.06
2019-02-25T02:08:27.069Z,52.73
2019-02-25T02:09:07.627Z,52.92
2019-02-25T02:09:48.193Z,53.2
2019-02-25T02:10:28.802Z,53.11
2019-02-25T02:11:09.394Z,52.92
2019-02-25T02:11:49.965Z,53.02
2019-02-25T02:12:32.146Z,53.02
2019-02-25T02:13:14.102Z,53.2
2019-02-25T02:13:51.744Z,53.02
2019-02-25T02:14:32.324Z,53.11
2019-02-25T02:15:12.909Z,53.02
2019-02-25T02:15:53.470Z,53.11
2019-02-25T02:16:34.050Z,53.02
2019-02-25T02:17:14.615Z,53.02
2019-02-25T02:17:55.167Z,53.11
2019-02-25T02:18:35.722Z,53.02
2019-02-25T02:19:16.283Z,52.92
2019-02-25T02:19:56.854Z,52.92
2019-02-25T02:20:37.447Z,52.83
2019-02-25T02:21:18.020Z,53.02
2019-02-25T02:21:58.580Z,53.02
2019-02-25T02:22:39.162Z,53.2
2019-02-25T02:23:19.737Z,52.83
2019-02-25T02:24:00.306Z,52.92
2019-02-25T02:24:40.881Z,52.83
2019-02-25T02:25:21.460Z,53.11
2019-02-25T02:26:02.050Z,53.02
2019-02-25T02:26:42.632Z,53.02
2019-02-25T02:27:23.180Z,52.83
2019-02-25T02:28:03.736Z,52.73
2019-02-25T02:28:44.302Z,53.39
2019-02-25T02:29:24.849Z,52.73
2019-02-25T02:30:05.419Z,52.92
2019-02-25T02:30:45.986Z,53.3
2019-02-25T02:31:26.556Z,52.83
2019-02-25T02:32:07.130Z,52.83
2019-02-25T02:32:47.701Z,52.73
2019-02-25T02:33:28.261Z,52.73
2019-02-25T02:34:08.807Z,52.73
2019-02-25T02:34:49.531Z,52.73
2019-02-25T02:35:30.077Z,53.02
2019-02-25T02:36:11.631Z,53.2
2019-02-25T02:36:51.212Z,52.83
2019-02-25T02:37:31.774Z,53.02
2019-02-25T02:38:12.343Z,53.3
2019-02-25T02:38:52.927Z,53.11
2019-02-25T02:39:33.484Z,53.39
2019-02-25T02:40:14.046Z,53.68
2019-02-25T02:40:54.610Z,53.87
2019-02-25T02:41:35.172Z,53.68
2019-02-25T02:42:15.754Z,53.39
2019-02-25T02:42:56.331Z,53.77
2019-02-25T02:43:36.885Z,53.68
2019-02-25T02:44:17.451Z,53.68
2019-02-25T02:44:57.998Z,53.68
2019-02-25T02:45:38.551Z,53.77
2019-02-25T02:46:19.102Z,53.77
2019-02-25T02:46:59.662Z,54.06
2019-02-25T02:47:40.205Z,54.06
2019-02-25T02:48:20.757Z,54.25
2019-02-25T02:49:01.311Z,54.06
2019-02-25T02:49:41.867Z,53.96
2019-02-25T02:50:22.439Z,53.77
2019-02-25T02:51:02.992Z,53.96
2019-02-25T02:51:43.544Z,53.87
2019-02-25T02:52:24.110Z,53.87
2019-02-25T02:53:04.699Z,54.44
2019-02-25T02:53:45.278Z,54.34
2019-02-25T02:54:25.901Z,54.15
2019-02-25T02:55:06.465Z,54.25
2019-02-25T02:55:47.045Z,54.34
2019-02-25T02:56:27.601Z,54.15
2019-02-25T02:57:08.161Z,54.63
2019-02-25T02:57:48.728Z,54.53
2019-02-25T02:58:29.284Z,54.72
2019-02-25T02:59:09.851Z,54.91
2019-02-25T02:59:50.419Z,54.82
2019-02-25T03:00:31.657Z,54.91
2019-02-25T03:01:12.240Z,54.72
2019-02-25T03:01:52.786Z,54.72
2019-02-25T03:02:33.353Z,54.63
2019-02-25T03:03:13.968Z,54.63
2019-02-25T03:03:54.526Z,54.53
2019-02-25T03:04:35.076Z,54.63
2019-02-25T03:05:15.665Z,54.72
2019-02-25T03:05:56.235Z,54.63
2019-02-25T03:06:36.774Z,54.34
2019-02-25T03:07:17.389Z,54.44
2019-02-25T03:07:57.953Z,54.44
2019-02-25T03:08:38.517Z,54.63
2019-02-25T03:09:19.071Z,54.63
2019-02-25T03:09:59.684Z,54.72
2019-02-25T03:10:40.264Z,54.82
2019-02-25T03:11:20.845Z,55.19
2019-02-25T03:12:01.397Z,54.91
2019-02-25T03:12:41.978Z,55
2019-02-25T03:13:22.558Z,55.19
2019-02-25T03:14:03.137Z,55.48
2019-02-25T03:14:43.726Z,55.38
2019-02-25T03:15:24.317Z,55.29
2019-02-25T03:16:04.917Z,55.48
2019-02-25T03:16:45.494Z,55.76
2019-02-25T03:17:26.045Z,56.15
2019-02-25T03:18:06.617Z,55.96
2019-02-25T03:18:47.198Z,55.57
2019-02-25T03:19:27.758Z,56.15
2019-02-25T03:20:08.399Z,55.48
2019-02-25T03:20:49.011Z,55.57
2019-02-25T03:21:29.570Z,55.67
2019-02-25T03:22:10.135Z,55.19
2019-02-25T03:22:50.734Z,55.48
2019-02-25T03:23:31.300Z,55.76
2019-02-25T03:24:11.863Z,56.15
2019-02-25T03:24:52.471Z,56.05
2019-02-25T03:25:33.067Z,55.86
2019-02-25T03:26:13.608Z,55.96
2019-02-25T03:26:54.244Z,55.96
2019-02-25T03:27:34.798Z,55.86
2019-02-25T03:28:15.367Z,55.76
2019-02-25T03:28:55.892Z,56.15
2019-02-25T03:29:36.448Z,55.96
2019-02-25T03:30:17.019Z,55.96
2019-02-25T03:30:57.569Z,55.86
2019-02-25T03:31:38.142Z,56.43
2019-02-25T03:32:18.702Z,56.52
2019-02-25T03:32:59.297Z,56.43
2019-02-25T03:33:39.864Z,56.81
2019-02-25T03:34:20.408Z,56.52
2019-02-25T03:35:00.985Z,56.62
2019-02-25T03:35:41.554Z,56.71
2019-02-25T03:36:22.124Z,56.81
2019-02-25T03:37:02.680Z,56.71
2019-02-25T03:37:43.258Z,56.62
2019-02-25T03:38:23.844Z,57.09
2019-02-25T03:39:04.378Z,56.52
2019-02-25T03:39:44.941Z,56.62
2019-02-25T03:40:25.521Z,56.62
2019-02-25T03:41:06.087Z,56.62
2019-02-25T03:41:46.639Z,56.62
2019-02-25T03:42:27.229Z,56.62
2019-02-25T03:43:07.794Z,56.81
2019-02-25T03:43:48.362Z,56.9
2019-02-25T03:44:28.968Z,56.9
2019-02-25T03:45:09.532Z,56.62
2019-02-25T03:45:50.080Z,56.71
2019-02-25T03:46:30.638Z,56.71
2019-02-25T03:47:11.202Z,56.62
2019-02-25T03:47:51.784Z,56.62
2019-02-25T03:48:32.361Z,56.81
2019-02-25T03:49:12.911Z,56.71
2019-02-25T03:49:53.520Z,56.62
2019-02-25T03:50:34.115Z,56.52
2019-02-25T03:51:14.675Z,56.99
2019-02-25T03:51:55.248Z,57.19
2019-02-25T03:52:35.793Z,57.09
2019-02-25T03:53:16.373Z,57.09
2019-02-25T03:53:56.934Z,57.38
2019-02-25T03:54:37.525Z,57.47
2019-02-25T03:55:18.093Z,57.38
2019-02-25T03:55:58.654Z,57.57
2019-02-25T03:56:39.210Z,57.38
2019-02-25T03:57:19.775Z,57.38
2019-02-25T03:58:00.314Z,57.28
2019-02-25T03:58:40.862Z,57.76
2019-02-25T03:59:21.422Z,57.85
2019-02-25T04:00:02.398Z,57.85
2019-02-25T04:00:42.977Z,57.85
2019-02-25T04:01:23.564Z,57.76
2019-02-25T04:02:04.105Z,57.95
2019-02-25T04:02:44.659Z,57.76
2019-02-25T04:03:25.219Z,58.04
2019-02-25T04:04:05.783Z,57.76
2019-02-25T04:04:46.347Z,57.95
2019-02-25T04:05:26.893Z,57.76
2019-02-25T04:06:07.479Z,57.66
2019-02-25T04:06:48.057Z,57.95
2019-02-25T04:07:28.620Z,58.14
2019-02-25T04:08:09.171Z,58.04
2019-02-25T04:08:49.724Z,57.92
2019-02-25T04:09:30.269Z,57.76
2019-02-25T04:10:10.831Z,57.76
2019-02-25T04:10:51.421Z,57.82
2019-02-25T04:11:32.042Z,57.64
2019-02-25T04:12:12.615Z,57.54
2019-02-25T04:12:53.187Z,57.64
2019-02-25T04:13:33.747Z,57.73
2019-02-25T04:14:14.315Z,57.47
2019-02-25T04:14:54.886Z,57.73
2019-02-25T04:15:35.441Z,57.92
2019-02-25T04:16:16.046Z,57.82
2019-02-25T04:16:56.612Z,57.73
2019-02-25T04:17:37.214Z,57.92
2019-02-25T04:18:17.773Z,57.82
2019-02-25T04:18:58.349Z,57.73
2019-02-25T04:19:38.928Z,57.82
2019-02-25T04:20:19.519Z,57.82
2019-02-25T04:21:00.085Z,57.64
2019-02-25T04:21:40.657Z,57.44
2019-02-25T04:22:21.241Z,57.64
2019-02-25T04:23:01.833Z,57.73
2019-02-25T04:23:42.374Z,57.82
2019-02-25T04:24:22.929Z,57.73
2019-02-25T04:25:03.567Z,57.73
2019-02-25T04:25:44.174Z,57.92
2019-02-25T04:26:24.780Z,58.01
2019-02-25T04:27:05.340Z,57.92
2019-02-25T04:27:45.896Z,58.11
2019-02-25T04:28:26.466Z,57.73
2019-02-25T04:29:07.028Z,57.57
2019-02-25T04:29:47.598Z,57.54
2019-02-25T04:30:28.157Z,57.54
2019-02-25T04:31:08.780Z,57.82
2019-02-25T04:31:49.387Z,58.11
2019-02-25T04:32:29.959Z,57.73
2019-02-25T04:33:10.539Z,58.2
2019-02-25T04:33:51.118Z,58.01
2019-02-25T04:34:31.669Z,58.2
2019-02-25T04:35:12.268Z,57.54
2019-02-25T04:35:52.842Z,57.44
2019-02-25T04:36:33.416Z,57.54
2019-02-25T04:37:14.017Z,57.64
2019-02-25T04:37:54.594Z,57.54
2019-02-25T04:38:35.170Z,57.44
2019-02-25T04:39:15.727Z,57.82
2019-02-25T04:39:56.267Z,57.54
2019-02-25T04:40:36.834Z,57.54
2019-02-25T04:41:17.406Z,57.64
2019-02-25T04:41:58.001Z,57.64
2019-02-25T04:42:38.591Z,57.64
2019-02-25T04:43:19.143Z,57.92
2019-02-25T04:43:59.730Z,57.92
2019-02-25T04:44:40.298Z,57.92
2019-02-25T04:45:20.900Z,58.01
2019-02-25T04:46:01.436Z,57.92
2019-02-25T04:46:41.995Z,58.01
2019-02-25T04:47:22.612Z,58.01
2019-02-25T04:48:03.192Z,57.73
2019-02-25T04:48:43.763Z,57.82
2019-02-25T04:49:24.324Z,58.01
2019-02-25T04:50:04.877Z,57.82
2019-02-25T04:50:45.503Z,57.92
2019-02-25T04:51:26.059Z,57.64
2019-02-25T04:52:06.614Z,58.29
2019-02-25T04:52:47.189Z,58.2
2019-02-25T04:53:27.742Z,58.29
2019-02-25T04:54:08.318Z,58.29
2019-02-25T04:54:48.913Z,58.39
2019-02-25T04:55:29.485Z,58.29
2019-02-25T04:56:10.028Z,58.67
2019-02-25T04:56:50.594Z,58.86
2019-02-25T04:57:31.170Z,58.58
2019-02-25T04:58:11.748Z,59.15
2019-02-25T04:58:52.316Z,59.15
2019-02-25T04:59:32.911Z,59.15
2019-02-25T05:00:13.478Z,58.48
2019-02-25T05:00:54.088Z,58.67
2019-02-25T05:01:34.651Z,58.48
2019-02-25T05:02:15.217Z,58.67
2019-02-25T05:02:55.825Z,58.96
2019-02-25T05:03:36.386Z,58.86
2019-02-25T05:04:16.967Z,58.39
2019-02-25T05:04:57.520Z,58.58
2019-02-25T05:05:38.112Z,58.67
2019-02-25T05:06:18.673Z,58.58
2019-02-25T05:06:59.242Z,58.48
2019-02-25T05:07:39.794Z,58.96
2019-02-25T05:08:20.347Z,59.05
2019-02-25T05:09:00.956Z,59.05
2019-02-25T05:09:41.522Z,59.44
2019-02-25T05:10:22.095Z,59.15
2019-02-25T05:11:02.656Z,58.96
2019-02-25T05:11:43.248Z,59.05
2019-02-25T05:12:23.785Z,59.05
2019-02-25T05:13:04.363Z,58.96
2019-02-25T05:13:44.903Z,59.44
2019-02-25T05:14:25.467Z,59.34
2019-02-25T05:15:06.043Z,59.63
2019-02-25T05:15:46.592Z,59.34
2019-02-25T05:16:27.170Z,59.44
2019-02-25T05:17:07.830Z,60
2019-02-25T05:17:48.420Z,59.91
2019-02-25T05:18:28.982Z,59.72
2019-02-25T05:19:09.555Z,59.91
2019-02-25T05:19:50.133Z,59.91
2019-02-25T05:20:30.661Z,59.91
2019-02-25T05:21:11.252Z,59.63
2019-02-25T05:21:51.831Z,59.53
2019-02-25T05:22:32.428Z,60
2019-02-25T05:23:12.991Z,60.19
2019-02-25T05:23:53.564Z,60.1
2019-02-25T05:24:34.140Z,60.19
2019-02-25T05:25:14.728Z,60
2019-02-25T05:25:55.322Z,60.47
2019-02-25T05:26:35.887Z,60.47
2019-02-25T05:27:16.481Z,60.57
2019-02-25T05:27:57.056Z,60.47
2019-02-25T05:28:37.607Z,60.86
2019-02-25T05:29:18.180Z,60.86
2019-02-25T05:29:58.745Z,60.67
2019-02-25T05:30:39.340Z,60.86
2019-02-25T05:31:19.873Z,60.86
2019-02-25T05:32:00.422Z,60.28
2019-02-25T05:32:40.986Z,59.91
2019-02-25T05:33:21.558Z,60
2019-02-25T05:34:02.120Z,59.91
2019-02-25T05:34:42.698Z,60.1
2019-02-25T05:35:23.217Z,60
2019-02-25T05:36:03.937Z,60.28
2019-02-25T05:36:44.576Z,60.57
2019-02-25T05:37:25.178Z,60.38
2019-02-25T05:38:05.707Z,60.57
2019-02-25T05:38:46.279Z,60.47
2019-02-25T05:39:26.844Z,60.67
2019-02-25T05:40:07.409Z,61.24
2019-02-25T05:40:47.990Z,61.33
2019-02-25T05:41:28.581Z,61.24
2019-02-25T05:42:09.107Z,61.05
2019-02-25T05:42:49.673Z,61.14
2019-02-25T05:43:30.220Z,61.33
2019-02-25T05:44:10.773Z,61.14
2019-02-25T05:44:51.317Z,61.05
2019-02-25T05:45:31.921Z,61.24
2019-02-25T05:46:12.452Z,61.71
2019-02-25T05:46:53.029Z,61.24
2019-02-25T05:47:33.584Z,61.43
2019-02-25T05:48:14.136Z,61.43
2019-02-25T05:48:54.709Z,61.43
2019-02-25T05:49:35.268Z,61.33
2019-02-25T05:50:15.824Z,61.61
2019-02-25T05:50:56.379Z,61.52
2019-02-25T05:51:36.940Z,61.61
2019-02-25T05:52:17.500Z,61.52
2019-02-25T05:52:58.383Z,61.9
2019-02-25T05:53:39.194Z,61.99
2019-02-25T05:54:19.887Z,61.52
2019-02-25T05:55:00.591Z,61.71
2019-02-25T05:55:41.141Z,61.61
2019-02-25T05:56:21.701Z,61.71
2019-02-25T05:57:02.267Z,61.8
2019-02-25T05:57:42.881Z,61.8
2019-02-25T05:58:23.447Z,61.61
2019-02-25T05:59:04.039Z,61.43
2019-02-25T05:59:44.622Z,61.61
2019-02-25T06:00:25.879Z,61.52
2019-02-25T06:01:06.466Z,61.43
2019-02-25T06:01:47.054Z,61.43
2019-02-25T06:02:27.696Z,61.43
2019-02-25T06:03:08.233Z,61.52
2019-02-25T06:03:48.794Z,61.43
2019-02-25T06:04:29.369Z,61.52
2019-02-25T06:05:09.951Z,61.43
2019-02-25T06:05:50.551Z,61.43
2019-02-25T06:06:31.125Z,61.71
2019-02-25T06:07:11.684Z,61.52
2019-02-25T06:07:52.285Z,61.43
2019-02-25T06:08:32.836Z,61.61
2019-02-25T06:09:14.257Z,61.43
2019-02-25T06:09:54.851Z,61.43
2019-02-25T06:10:35.450Z,61.43
2019-02-25T06:11:16.027Z,61.71
2019-02-25T06:11:56.605Z,61.9
2019-02-25T06:12:37.203Z,61.9
2019-02-25T06:13:17.775Z,61.9
2019-02-25T06:13:58.346Z,61.52
2019-02-25T06:14:38.917Z,61.61
2019-02-25T06:15:19.505Z,61.61
2019-02-25T06:16:00.060Z,62.85
2019-02-25T06:16:40.721Z,62.37
2019-02-25T06:17:21.231Z,62.37
2019-02-25T06:18:01.805Z,61.9
2019-02-25T06:18:42.359Z,61.52
2019-02-25T06:19:22.955Z,61.9
2019-02-25T06:20:03.502Z,61.71
2019-02-25T06:20:44.075Z,61.71
2019-02-25T06:21:24.627Z,61.33
2019-02-25T06:22:05.191Z,61.71
2019-02-25T06:22:45.742Z,61.61
2019-02-25T06:23:26.341Z,63.7
2019-02-25T06:24:06.901Z,68.91
2019-02-25T06:24:47.437Z,72.52
2019-02-25T06:25:28.058Z,73.41
2019-02-25T06:26:08.630Z,73.6
2019-02-25T06:26:49.198Z,69.8
2019-02-25T06:27:30.818Z,65.91
2019-02-25T06:28:10.393Z,63.82
2019-02-25T06:28:50.959Z,61.83
2019-02-25T06:29:31.513Z,61.27
2019-02-25T06:30:12.075Z,60.41
2019-02-25T06:30:52.696Z,60.6
2019-02-25T06:31:33.250Z,60.5
2019-02-25T06:32:13.819Z,60.31
2019-02-25T06:32:54.389Z,60.03
2019-02-25T06:33:35.029Z,60.13
2019-02-25T06:34:15.625Z,60.03
2019-02-25T06:34:56.170Z,60.03
2019-02-25T06:35:36.737Z,60.03
2019-02-25T06:36:17.335Z,60.03
2019-02-25T06:36:57.906Z,60.22
2019-02-25T06:37:38.470Z,60.22
2019-02-25T06:38:19.020Z,60.22
2019-02-25T06:38:59.581Z,60.22
2019-02-25T06:39:40.138Z,60.03
2019-02-25T06:40:20.724Z,59.91
2019-02-25T06:41:01.274Z,60.5
2019-02-25T06:41:41.859Z,60.41
2019-02-25T06:42:22.409Z,60.67
2019-02-25T06:43:03.016Z,60.76
2019-02-25T06:43:43.577Z,60.5
2019-02-25T06:44:24.180Z,60.7
2019-02-25T06:45:04.745Z,60.38
2019-02-25T06:45:45.316Z,60.57
2019-02-25T06:46:25.867Z,60.38
2019-02-25T06:47:06.470Z,60.86
2019-02-25T06:47:47.030Z,60.67
2019-02-25T06:48:27.612Z,60.57
2019-02-25T06:49:08.166Z,60.67
2019-02-25T06:49:48.790Z,60.76
2019-02-25T06:50:29.367Z,60.67
2019-02-25T06:51:10.014Z,60.57
2019-02-25T06:51:50.678Z,60.67
2019-02-25T06:52:31.249Z,60.57
2019-02-25T06:53:11.814Z,60.47
2019-02-25T06:53:52.426Z,61.14
2019-02-25T06:54:32.980Z,61.33
2019-02-25T06:55:13.540Z,61.14
2019-02-25T06:55:54.138Z,60.95
2019-02-25T06:56:34.698Z,61.05
2019-02-25T06:57:15.294Z,60.95
2019-02-25T06:57:55.910Z,61.24
2019-02-25T06:58:36.465Z,61.05
2019-02-25T06:59:17.045Z,61.05
2019-02-25T06:59:57.605Z,61.43
2019-02-25T07:00:38.342Z,61.05
2019-02-25T07:01:18.944Z,61.14
2019-02-25T07:01:59.524Z,61.33
2019-02-25T07:02:40.063Z,61.24
2019-02-25T07:03:20.609Z,61.05
2019-02-25T07:04:01.185Z,61.05
2019-02-25T07:04:41.773Z,61.08
2019-02-25T07:05:22.383Z,61.08
2019-02-25T07:06:02.958Z,61.24
2019-02-25T07:06:43.511Z,61.14
2019-02-25T07:07:24.073Z,61.14
2019-02-25T07:08:04.710Z,61.24
2019-02-25T07:08:45.234Z,61.08
2019-02-25T07:09:25.802Z,61.27
2019-02-25T07:10:06.384Z,60.95
2019-02-25T07:10:46.939Z,61.36
2019-02-25T07:11:27.503Z,61.55
2019-02-25T07:12:08.128Z,61.46
2019-02-25T07:12:48.679Z,61.46
2019-02-25T07:13:29.258Z,61.36
2019-02-25T07:14:09.811Z,61.27
2019-02-25T07:14:50.398Z,61.27
2019-02-25T07:15:30.972Z,61.27
2019-02-25T07:16:11.538Z,61.36
2019-02-25T07:16:52.081Z,61.08
2019-02-25T07:17:32.640Z,61.08
2019-02-25T07:18:13.235Z,61.36
2019-02-25T07:18:53.795Z,60.79
2019-02-25T07:19:34.344Z,61.17
2019-02-25T07:20:14.897Z,61.08
2019-02-25T07:20:55.448Z,60.7
2019-02-25T07:21:36.007Z,61.17
2019-02-25T07:22:16.554Z,60.79
2019-02-25T07:22:57.108Z,60.79
2019-02-25T07:23:37.813Z,60.7
2019-02-25T07:24:18.278Z,60.5
2019-02-25T07:24:58.856Z,60.7
2019-02-25T07:25:39.423Z,60.6
2019-02-25T07:26:20.002Z,61.08
2019-02-25T07:27:00.584Z,60.98
2019-02-25T07:27:41.986Z,61.17
2019-02-25T07:28:21.721Z,60.5
2019-02-25T07:29:03.493Z,60.5
2019-02-25T07:29:42.861Z,60.6
2019-02-25T07:30:23.426Z,60.41
2019-02-25T07:31:03.982Z,60.5
2019-02-25T07:31:44.556Z,60.31
2019-02-25T07:32:25.105Z,60.5
2019-02-25T07:33:05.651Z,60.5
2019-02-25T07:33:46.244Z,60.5
2019-02-25T07:34:26.801Z,60.22
2019-02-25T07:35:07.375Z,60.31
2019-02-25T07:35:47.957Z,60.7
2019-02-25T07:36:28.513Z,60.31
2019-02-25T07:37:09.071Z,60.41
2019-02-25T07:37:51.611Z,60.41
2019-02-25T07:38:38.965Z,60.41
2019-02-25T07:39:10.823Z,60.41
2019-02-25T07:39:51.373Z,60.5
2019-02-25T07:40:31.957Z,60.5
2019-02-25T07:41:12.530Z,60.31
2019-02-25T07:41:53.103Z,60.13
2019-02-25T07:42:33.701Z,60.41
2019-02-25T07:43:15.453Z,60.03
2019-02-25T07:43:54.818Z,60.22
2019-02-25T07:44:35.388Z,60.03
2019-02-25T07:45:16.006Z,59.84
2019-02-25T07:45:56.565Z,60.03
2019-02-25T07:46:37.118Z,60.13
2019-02-25T07:47:17.676Z,60.22
2019-02-25T07:47:58.243Z,60.31
2019-02-25T07:48:38.810Z,59.94
2019-02-25T07:49:19.392Z,59.75
2019-02-25T07:49:59.963Z,60.03
2019-02-25T07:50:46.894Z,59.46
2019-02-25T07:51:21.093Z,59.49
2019-02-25T07:52:01.667Z,59.84
2019-02-25T07:52:42.237Z,59.49
2019-02-25T07:53:22.796Z,59.68
2019-02-25T07:54:03.413Z,59.4
2019-02-25T07:54:43.975Z,59.59
2019-02-25T07:55:24.585Z,59.59
2019-02-25T07:56:05.154Z,59.49
2019-02-25T07:56:45.726Z,59.68
2019-02-25T07:57:26.295Z,59.68
2019-02-25T07:58:06.869Z,59.4
2019-02-25T07:58:47.437Z,59.4
2019-02-25T07:59:28.010Z,59.3
2019-02-25T08:00:09.220Z,58.92
2019-02-25T08:00:49.779Z,59.11
2019-02-25T08:01:30.339Z,59.3
2019-02-25T08:02:10.908Z,59.11
2019-02-25T08:02:51.484Z,59.05
2019-02-25T08:03:32.060Z,59.24
2019-02-25T08:04:12.623Z,59.24
2019-02-25T08:04:53.189Z,58.95
2019-02-25T08:05:33.758Z,58.61
2019-02-25T08:06:14.368Z,57.75
2019-02-25T08:06:54.931Z,57.18
2019-02-25T08:07:35.526Z,56.26
2019-02-25T08:08:16.083Z,55.78
2019-02-25T08:08:56.685Z,54.96
2019-02-25T08:09:37.266Z,54.38
2019-02-25T08:10:17.887Z,53.53
2019-02-25T08:10:58.465Z,52.89
2019-02-25T08:11:39.059Z,52.22
2019-02-25T08:12:19.611Z,51.56
2019-02-25T08:13:00.209Z,50.63
2019-02-25T08:13:40.760Z,49.96
2019-02-25T08:14:21.306Z,49.4
2019-02-25T08:15:01.929Z,48.66
2019-02-25T08:15:42.498Z,47.99
2019-02-25T08:16:23.078Z,47.16
2019-02-25T08:17:04.622Z,46.68
2019-02-25T08:17:44.230Z,46.49
2019-02-25T08:18:24.798Z,45.54
2019-02-25T08:19:05.401Z,45.18
2019-02-25T08:19:45.958Z,44.99
2019-02-25T08:20:26.565Z,43.68
2019-02-25T08:21:07.130Z,43.01
2019-02-25T08:21:47.700Z,42.34
2019-02-25T08:22:28.299Z,41.98
2019-02-25T08:23:08.867Z,41.41
2019-02-25T08:23:49.493Z,41.03
2019-02-25T08:24:30.690Z,40.55
2019-02-25T08:25:10.678Z,40.28
2019-02-25T08:25:52.043Z,40.19
2019-02-25T08:26:31.816Z,39.42
2019-02-25T08:27:12.391Z,39.23
2019-02-25T08:27:52.955Z,39.35
2019-02-25T08:28:33.521Z,39.06
2019-02-25T08:29:14.103Z,38.68
2019-02-25T08:29:54.721Z,38.39
2019-02-25T08:30:35.249Z,38.49
2019-02-25T08:31:15.877Z,38.1
2019-02-25T08:31:56.464Z,38.41
2019-02-25T08:32:37.093Z,38.32
2019-02-25T08:33:17.633Z,37.65
2019-02-25T08:33:58.224Z,37.36
2019-02-25T08:34:38.850Z,37.17
2019-02-25T08:35:19.416Z,36.98
2019-02-25T08:36:00.000Z,36.9
2019-02-25T08:36:40.621Z,36.33
2019-02-25T08:37:21.197Z,35.75
2019-02-25T08:38:01.832Z,36.12
2019-02-25T08:38:42.746Z,35.55
2019-02-25T08:39:23.514Z,35.83
2019-02-25T08:40:04.078Z,35.93
2019-02-25T08:40:44.665Z,36.31
2019-02-25T08:41:25.214Z,35.83
2019-02-25T08:42:05.800Z,35.16
2019-02-25T08:42:46.373Z,35.16
2019-02-25T08:43:26.936Z,35.93
2019-02-25T08:44:07.507Z,35.74
2019-02-25T08:44:48.103Z,36.14